createdAt,value
2023-04-02T00:02:31.206Z,0.15
2023-04-02T00:05:16.730Z,0.20
2023-04-02T00:07:48.874Z,0.20
2023-04-02T00:10:27.654Z,0.10
2023-04-02T00:13:04.394Z,0.17
2023-04-02T00:15:31.693Z,0.20
2023-04-02T00:18:00.008Z,0.20
2023-04-02T00:20:28.495Z,0.20
2023-04-02T00:22:56.601Z,0.10
2023-04-02T00:25:28.271Z,0.20
2023-04-02T00:27:56.601Z,0.30
2023-04-02T00:30:23.269Z,0.10
2023-04-02T00:32:50.053Z,0.20
2023-04-02T00:35:26.188Z,0.10
2023-04-02T00:37:53.351Z,0.13
2023-04-02T00:40:23.961Z,0.35
2023-04-02T00:42:50.876Z,0.20
2023-04-02T00:45:33.291Z,0.10
2023-04-02T00:48:13.395Z,0.10
2023-04-02T00:50:43.540Z,0.10
2023-04-02T00:53:17.390Z,0.20
2023-04-02T00:55:44.263Z,0.20
2023-04-02T00:58:30.053Z,0.10
2023-04-02T01:00:57.041Z,0.17
2023-04-02T01:03:30.614Z,0.25
2023-04-02T01:06:04.183Z,0.20
2023-04-02T01:08:45.474Z,0.30
2023-04-02T01:11:49.630Z,0.13
2023-04-02T01:14:44.367Z,0.20
2023-04-02T01:17:26.569Z,0.30
2023-04-02T01:20:07.608Z,0.20
2023-04-02T01:23:00.302Z,0.10
2023-04-02T01:25:54.732Z,0.20
2023-04-02T01:28:51.557Z,0.10
2023-04-02T01:31:18.431Z,0.25
2023-04-02T01:33:45.451Z,0.28
2023-04-02T01:36:23.371Z,0.20
2023-04-02T01:39:02.262Z,0.10
2023-04-02T01:41:39.579Z,0.20
2023-04-02T01:44:10.330Z,0.20
2023-04-02T01:46:41.479Z,0.22
2023-04-02T01:49:18.685Z,0.30
2023-04-02T01:51:53.129Z,0.30
2023-04-02T01:54:21.062Z,0.10
2023-04-02T01:56:48.500Z,0.17
2023-04-02T01:59:22.272Z,0.20
2023-04-02T02:02:22.069Z,0.13
2023-04-02T02:04:48.827Z,0.10
2023-04-02T02:07:18.470Z,0.10
2023-04-02T02:09:45.785Z,0.20
2023-04-02T02:12:16.218Z,0.10
2023-04-02T02:14:50.358Z,0.20
2023-04-02T02:17:21.602Z,0.20
2023-04-02T02:19:52.299Z,0.20
2023-04-02T02:22:33.886Z,0.20
2023-04-02T02:25:03.689Z,0.20
2023-04-02T02:27:30.713Z,0.10
2023-04-02T02:30:04.552Z,0.20
2023-04-02T02:32:33.256Z,0.10
2023-04-02T02:35:12.845Z,0.20
2023-04-02T02:37:47.682Z,0.10
2023-04-02T02:40:36.828Z,0.10
2023-04-02T02:43:09.497Z,0.20
2023-04-02T02:45:39.198Z,0.22
2023-04-02T02:48:10.888Z,0.20
2023-04-02T02:50:38.810Z,0.10
2023-04-02T02:53:15.799Z,0.20
2023-04-02T02:55:42.533Z,0.20
2023-04-02T02:58:15.624Z,0.20
2023-04-02T03:00:42.590Z,0.20
2023-04-02T03:03:17.025Z,0.10
2023-04-02T03:05:44.934Z,0.30
2023-04-02T03:08:21.652Z,0.20
2023-04-02T03:11:01.154Z,0.20
2023-04-02T03:13:30.199Z,0.13
2023-04-02T03:16:21.655Z,0.15
2023-04-02T03:18:52.706Z,0.20
2023-04-02T03:21:37.757Z,0.20
2023-04-02T03:24:13.219Z,0.20
2023-04-02T03:26:46.005Z,0.30
2023-04-02T03:29:19.036Z,0.30
2023-04-02T03:31:50.555Z,0.20
2023-04-02T03:34:32.918Z,0.30
2023-04-02T03:37:10.037Z,0.20
2023-04-02T03:39:56.420Z,0.20
2023-04-02T03:42:26.296Z,0.10
2023-04-02T03:45:15.848Z,0.10
2023-04-02T03:47:49.950Z,0.20
2023-04-02T03:50:21.608Z,0.20
2023-04-02T03:52:48.984Z,0.20
2023-04-02T03:55:19.447Z,0.20
2023-04-02T03:58:07.834Z,0.15
2023-04-02T04:00:57.680Z,0.30
2023-04-02T04:03:30.791Z,0.30
2023-04-02T04:06:10.947Z,0.20
2023-04-02T04:08:52.083Z,0.20
2023-04-02T04:11:24.885Z,0.30
2023-04-02T04:14:00.923Z,0.30
2023-04-02T04:16:40.278Z,0.10
2023-04-02T04:19:19.207Z,0.20
2023-04-02T04:21:46.317Z,0.10
2023-04-02T04:24:39.312Z,0.30
2023-04-02T04:27:13.960Z,0.20
2023-04-02T04:29:59.113Z,0.32
2023-04-02T04:32:34.705Z,0.20
2023-04-02T04:35:38.933Z,0.20
2023-04-02T04:38:27.618Z,0.40
2023-04-02T04:40:58.912Z,0.40
2023-04-02T04:43:56.971Z,0.30
2023-04-02T04:46:33.144Z,0.25
2023-04-02T04:49:03.124Z,0.30
2023-04-02T04:51:42.567Z,0.47
2023-04-02T04:54:14.281Z,0.30
2023-04-02T04:56:46.792Z,0.50
2023-04-02T04:59:16.389Z,0.60
2023-04-02T05:01:53.312Z,0.70
2023-04-02T05:04:23.090Z,0.70
2023-04-02T05:06:56.242Z,1.20
2023-04-02T05:09:34.074Z,1.38
2023-04-02T05:12:35.460Z,0.80
2023-04-02T05:15:09.944Z,0.43
2023-04-02T05:18:05.875Z,0.70
2023-04-02T05:20:59.069Z,0.47
2023-04-02T05:23:39.675Z,0.70
2023-04-02T05:26:19.020Z,0.63
2023-04-02T05:29:00.886Z,0.45
2023-04-02T05:31:42.480Z,0.30
2023-04-02T05:34:12.415Z,0.35
2023-04-02T05:36:39.860Z,0.28
2023-04-02T05:39:11.195Z,0.50
2023-04-02T05:41:44.626Z,0.50
2023-04-02T05:44:39.130Z,0.73
2023-04-02T05:47:19.571Z,0.50
2023-04-02T05:50:05.816Z,1.30
2023-04-02T05:52:36.332Z,0.50
2023-04-02T05:55:06.946Z,0.38
2023-04-02T05:57:49.536Z,0.60
2023-04-02T06:00:39.312Z,0.50
2023-04-02T06:03:28.982Z,0.55
2023-04-02T06:06:01.285Z,0.45
2023-04-02T06:08:36.772Z,0.60
2023-04-02T06:11:13.784Z,0.60
2023-04-02T06:13:40.455Z,0.40
2023-04-02T06:16:07.482Z,0.30
2023-04-02T06:18:36.895Z,0.38
2023-04-02T06:21:05.453Z,0.38
2023-04-02T06:23:48.377Z,0.40
2023-04-02T06:26:38.873Z,0.38
2023-04-02T06:29:15.873Z,0.30
2023-04-02T06:31:50.665Z,0.22
2023-04-02T06:34:22.388Z,0.30
2023-04-02T06:36:51.754Z,0.60
2023-04-02T06:39:22.808Z,0.30
2023-04-02T06:42:07.572Z,0.60
2023-04-02T06:44:38.265Z,0.40
2023-04-02T06:47:36.523Z,0.32
2023-04-02T06:50:06.564Z,0.30
2023-04-02T06:52:39.784Z,0.30
2023-04-02T06:55:46.641Z,0.50
2023-04-02T06:58:15.591Z,0.40
2023-04-02T07:00:48.035Z,0.40
2023-04-02T07:03:27.192Z,0.50
2023-04-02T07:05:54.343Z,0.45
2023-04-02T07:08:21.419Z,0.40
2023-04-02T07:10:47.975Z,0.35
2023-04-02T07:13:20.648Z,0.40
2023-04-02T07:15:51.165Z,0.38
2023-04-02T07:18:38.202Z,0.40
2023-04-02T07:21:04.981Z,0.20
2023-04-02T07:23:31.551Z,0.45
2023-04-02T07:25:58.570Z,0.50
2023-04-02T07:28:26.060Z,0.40
2023-04-02T07:30:53.041Z,0.30
2023-04-02T07:33:23.714Z,0.40
2023-04-02T07:35:52.475Z,0.30
2023-04-02T07:38:19.449Z,0.28
2023-04-02T07:40:46.145Z,0.25
2023-04-02T07:43:12.792Z,0.30
2023-04-02T07:45:39.328Z,0.40
2023-04-02T07:48:11.449Z,0.30
2023-04-02T07:50:38.536Z,0.30
2023-04-02T07:53:07.122Z,0.30
2023-04-02T07:55:33.835Z,0.30
2023-04-02T07:58:00.737Z,0.15
2023-04-02T08:00:29.033Z,0.30
2023-04-02T08:02:56.314Z,0.65
2023-04-02T08:05:23.083Z,0.25
2023-04-02T08:07:56.934Z,0.35
2023-04-02T08:10:24.434Z,0.35
2023-04-02T08:12:51.339Z,0.40
2023-04-02T08:15:18.378Z,0.32
2023-04-02T08:17:45.863Z,0.20
2023-04-02T08:20:19.274Z,0.60
2023-04-02T08:22:46.969Z,0.30
2023-04-02T08:25:13.770Z,0.30
2023-04-02T08:27:40.570Z,0.50
2023-04-02T08:30:08.713Z,0.20
2023-04-02T08:32:35.636Z,0.20
2023-04-02T08:35:02.697Z,0.50
2023-04-02T08:37:29.355Z,0.40
2023-04-02T08:39:55.919Z,0.30
2023-04-02T08:42:49.325Z,0.50
2023-04-02T08:45:24.834Z,0.30
2023-04-02T08:47:56.578Z,0.30
2023-04-02T08:50:32.840Z,0.30
2023-04-02T08:53:02.460Z,0.40
2023-04-02T08:55:44.011Z,0.43
2023-04-02T08:58:50.762Z,0.25
2023-04-02T09:01:49.826Z,0.35
2023-04-02T09:04:20.166Z,0.38
2023-04-02T09:06:48.393Z,0.30
2023-04-02T09:09:16.807Z,0.43
2023-04-02T09:11:56.328Z,0.38
2023-04-02T09:14:50.019Z,0.32
2023-04-02T09:17:25.394Z,0.38
2023-04-02T09:20:23.200Z,0.30
2023-04-02T09:22:51.700Z,0.28
2023-04-02T09:25:21.905Z,0.40
2023-04-02T09:27:50.538Z,0.30
2023-04-02T09:30:32.028Z,0.20
2023-04-02T09:33:02.592Z,0.30
2023-04-02T09:35:32.456Z,0.30
2023-04-02T09:38:22.287Z,0.30
2023-04-02T09:40:54.897Z,0.38
2023-04-02T09:43:24.812Z,0.20
2023-04-02T09:46:02.154Z,0.30
2023-04-02T09:49:01.012Z,0.30
2023-04-02T09:51:35.245Z,0.40
2023-04-02T09:54:04.849Z,0.40
2023-04-02T09:56:36.362Z,0.30
2023-04-02T09:59:23.657Z,0.40
2023-04-02T10:01:56.142Z,0.40
2023-04-02T10:04:46.973Z,0.40
2023-04-02T10:07:40.034Z,0.40
2023-04-02T10:10:18.732Z,0.28
2023-04-02T10:13:00.232Z,0.50
2023-04-02T10:15:54.180Z,0.30
2023-04-02T10:18:49.098Z,0.40
2023-04-02T10:21:25.300Z,0.50
2023-04-02T10:23:51.908Z,0.40
2023-04-02T10:26:20.321Z,0.40
2023-04-02T10:29:06.766Z,0.30
2023-04-02T10:32:01.322Z,0.30
2023-04-02T10:37:24.863Z,0.35
2023-04-02T10:39:59.782Z,0.20
2023-04-02T10:42:38.746Z,0.30
2023-04-02T10:45:31.570Z,0.30
2023-04-02T10:48:15.654Z,0.40
2023-04-02T10:50:48.130Z,0.25
2023-04-02T10:53:17.816Z,0.20
2023-04-02T10:55:51.955Z,0.30
2023-04-02T10:58:31.944Z,0.22
2023-04-02T11:01:08.103Z,0.40
2023-04-02T11:03:41.576Z,0.50
2023-04-02T11:08:47.780Z,0.38
2023-04-02T11:11:27.894Z,0.40
2023-04-02T11:14:06.044Z,0.20
2023-04-02T11:16:34.312Z,0.40
2023-04-02T11:19:10.578Z,0.30
2023-04-02T11:21:57.358Z,0.28
2023-04-02T11:24:37.333Z,0.38
2023-04-02T11:27:05.724Z,0.30
2023-04-02T11:29:34.620Z,0.43
2023-04-02T11:32:27.428Z,0.30
2023-04-02T11:35:05.950Z,0.28
2023-04-02T11:37:44.786Z,0.47
2023-04-02T11:40:11.724Z,0.47
2023-04-02T11:42:40.923Z,0.30
2023-04-02T11:45:28.565Z,0.30
2023-04-02T11:48:01.322Z,0.30
2023-04-02T11:50:36.771Z,0.38
2023-04-02T11:53:12.288Z,0.70
2023-04-02T11:56:01.558Z,0.70
2023-04-02T11:58:47.060Z,0.50
2023-04-02T12:01:23.481Z,0.28
2023-04-02T12:04:11.479Z,0.38
2023-04-02T12:06:49.042Z,0.20
2023-04-02T12:09:53.766Z,0.20
2023-04-02T12:12:36.500Z,0.20
2023-04-02T12:15:04.576Z,0.30
2023-04-02T12:17:34.824Z,0.50
2023-04-02T12:20:09.170Z,0.20
2023-04-02T12:22:46.041Z,0.20
2023-04-02T12:25:40.382Z,0.20
2023-04-02T12:28:14.562Z,0.50
2023-04-02T12:30:41.995Z,0.73
2023-04-02T12:33:30.406Z,0.40
2023-04-02T12:35:59.505Z,0.40
2023-04-02T12:38:33.456Z,0.50
2023-04-02T12:41:03.574Z,0.40
2023-04-02T12:43:36.125Z,0.40
2023-04-02T12:46:06.410Z,1.52
2023-04-02T12:48:34.839Z,0.82
2023-04-02T12:51:03.212Z,0.80
2023-04-02T12:53:34.962Z,0.75
2023-04-02T12:56:01.945Z,0.85
2023-04-02T12:58:45.420Z,1.00
2023-04-02T13:01:16.040Z,1.15
2023-04-02T13:03:42.690Z,1.20
2023-04-02T13:06:28.058Z,0.90
2023-04-02T13:08:55.158Z,1.40
2023-04-02T13:11:22.738Z,0.90
2023-04-02T13:13:50.513Z,1.48
2023-04-02T13:16:17.059Z,1.23
2023-04-02T13:18:46.863Z,2.42
2023-04-02T13:21:16.525Z,2.13
2023-04-02T13:23:44.213Z,2.60
2023-04-02T13:26:22.046Z,3.22
2023-04-02T13:29:02.267Z,2.92
2023-04-02T13:31:32.871Z,3.50
2023-04-02T13:33:59.571Z,2.10
2023-04-02T13:36:29.215Z,2.30
2023-04-02T13:38:56.208Z,2.20
2023-04-02T13:41:27.374Z,2.70
2023-04-02T13:43:55.638Z,2.53
2023-04-02T13:46:27.887Z,1.85
2023-04-02T13:48:55.882Z,1.85
2023-04-02T13:51:27.235Z,2.85
2023-04-02T13:53:57.094Z,3.65
2023-04-02T13:56:24.644Z,2.40
2023-04-02T13:58:51.900Z,3.55
2023-04-02T14:01:21.407Z,3.17
2023-04-02T14:03:48.144Z,2.67
2023-04-02T14:06:26.246Z,2.92
2023-04-02T14:09:07.892Z,3.45
2023-04-02T14:11:58.217Z,3.47
2023-04-02T14:14:30.632Z,3.20
2023-04-02T14:17:16.298Z,3.55
2023-04-02T14:20:04.799Z,3.60
2023-04-02T14:23:08.700Z,2.45
2023-04-02T14:26:00.606Z,3.35
2023-04-02T14:28:38.094Z,4.07
2023-04-02T14:31:07.689Z,4.28
2023-04-02T14:33:47.575Z,5.65
2023-04-02T14:36:26.571Z,7.65
2023-04-02T14:38:59.109Z,2.20
2023-04-02T14:41:28.988Z,3.55
2023-04-02T14:44:02.716Z,3.80
2023-04-02T14:49:13.164Z,10.60
2023-04-02T14:51:44.828Z,4.68
2023-04-02T14:54:18.037Z,6.30
2023-04-02T14:56:52.504Z,5.15
2023-04-02T14:59:28.245Z,8.48
2023-04-02T15:02:02.392Z,29.33
2023-04-02T15:04:38.179Z,12.77
2023-04-02T15:07:38.391Z,7.43
2023-04-02T15:10:32.190Z,9.68
2023-04-02T15:13:03.851Z,16.88
2023-04-02T15:15:43.040Z,5.82
2023-04-02T15:18:17.795Z,17.33
2023-04-02T15:21:20.093Z,6.10
2023-04-02T15:23:55.515Z,13.40
2023-04-02T15:26:29.738Z,8.70
2023-04-02T15:29:28.387Z,6.03
2023-04-02T15:32:10.298Z,19.67
2023-04-02T15:35:08.262Z,15.35
2023-04-02T15:37:55.290Z,9.38
2023-04-02T15:40:43.151Z,7.72
2023-04-02T15:43:30.548Z,4.32
2023-04-02T15:46:35.551Z,4.80
2023-04-02T15:49:20.804Z,15.20
2023-04-02T15:52:10.608Z,13.65
2023-04-02T15:54:45.551Z,11.27
2023-04-02T15:57:22.526Z,24.67
2023-04-02T16:00:03.618Z,14.52
2023-04-02T16:02:53.772Z,30.88
2023-04-02T16:05:42.340Z,33.75
2023-04-02T16:08:57.210Z,16.02
2023-04-02T16:11:25.262Z,42.05
2023-04-02T16:13:58.324Z,54.47
2023-04-02T16:16:34.027Z,53.67
2023-04-02T16:19:16.049Z,49.92
2023-04-02T16:21:50.578Z,60.50
2023-04-02T16:24:17.313Z,55.58
2023-04-02T16:26:58.107Z,44.60
2023-04-02T16:29:51.589Z,55.42
2023-04-02T16:32:51.319Z,42.20
2023-04-02T16:38:19.835Z,63.28
2023-04-02T16:41:07.039Z,64.63
2023-04-02T16:44:06.357Z,71.18
2023-04-02T16:47:11.391Z,63.70
2023-04-02T16:49:50.191Z,63.63
2023-04-02T16:52:34.762Z,74.97
2023-04-02T16:55:25.383Z,2.92
2023-04-02T16:58:27.335Z,2.60
2023-04-02T17:01:05.053Z,2.40
2023-04-02T17:04:00.088Z,2.08
2023-04-02T17:06:43.862Z,2.63
2023-04-02T17:09:28.308Z,3.47
2023-04-02T17:12:19.949Z,3.13
2023-04-02T17:14:52.299Z,3.15
2023-04-02T17:17:21.419Z,2.58
2023-04-02T17:19:51.472Z,2.92
2023-04-02T17:22:22.322Z,2.72
2023-04-02T17:25:01.607Z,2.65
2023-04-02T17:27:45.115Z,5.28
2023-04-02T17:30:29.785Z,4.38
2023-04-02T17:32:56.450Z,8.60
2023-04-02T17:35:46.597Z,12.00
2023-04-02T17:38:19.972Z,9.18
2023-04-02T17:40:54.670Z,17.45
2023-04-02T17:43:58.341Z,14.32
2023-04-02T17:46:46.972Z,17.73
2023-04-02T17:49:36.852Z,20.90
2023-04-02T17:52:14.288Z,25.95
2023-04-02T17:54:55.574Z,26.55
2023-04-02T17:58:01.218Z,35.20
2023-04-02T18:00:42.824Z,46.17
2023-04-02T18:03:18.710Z,56.80
2023-04-02T18:05:54.405Z,51.80
2023-04-02T18:08:49.361Z,58.33
2023-04-02T18:11:45.008Z,61.40
2023-04-02T18:14:30.382Z,54.83
2023-04-02T18:17:15.376Z,31.13
2023-04-02T18:20:11.020Z,49.80
2023-04-02T18:22:45.970Z,52.33
2023-04-02T18:25:21.970Z,56.33
2023-04-02T18:28:36.096Z,58.13
2023-04-02T18:31:14.766Z,56.20
2023-04-02T18:34:02.272Z,52.00
2023-04-02T18:36:52.801Z,57.63
2023-04-02T18:39:51.549Z,57.40
2023-04-02T18:42:53.560Z,60.42
2023-04-02T18:45:38.544Z,47.47
2023-04-02T18:48:10.845Z,44.13
2023-04-02T18:50:40.819Z,65.22
2023-04-02T18:53:24.167Z,74.70
2023-04-02T18:56:04.552Z,72.30
2023-04-02T18:58:53.892Z,73.75
2023-04-02T19:01:28.068Z,69.28
2023-04-02T19:04:04.500Z,72.95
2023-04-02T19:06:45.957Z,71.18
2023-04-02T19:09:17.185Z,79.32
2023-04-02T19:11:43.737Z,75.78
2023-04-02T19:14:12.986Z,93.15
2023-04-02T19:17:02.807Z,84.05
2023-04-02T19:19:32.513Z,87.57
2023-04-02T19:22:32.440Z,94.15
2023-04-02T19:25:36.692Z,88.45
2023-04-02T19:28:33.974Z,99.15
2023-04-02T19:31:17.291Z,94.47
2023-04-02T19:33:59.390Z,105.88
2023-04-02T19:36:45.441Z,106.90
2023-04-02T19:39:33.049Z,104.03
2023-04-02T19:42:15.401Z,111.63
2023-04-02T19:44:48.320Z,107.68
2023-04-02T19:47:17.500Z,116.53
2023-04-02T19:49:44.382Z,122.07
2023-04-02T19:52:11.366Z,123.38
2023-04-02T19:54:38.592Z,120.03
2023-04-02T19:57:05.646Z,120.95
2023-04-02T19:59:32.494Z,122.38
2023-04-02T20:01:59.322Z,128.02
2023-04-02T20:04:26.128Z,122.38
2023-04-02T20:06:52.865Z,120.28
2023-04-02T20:09:21.158Z,135.85
2023-04-02T20:11:47.729Z,132.60
2023-04-02T20:14:14.305Z,158.18
2023-04-02T20:16:41.836Z,151.95
2023-04-02T20:19:09.772Z,160.80
2023-04-02T20:21:38.694Z,157.50
2023-04-02T20:24:06.743Z,160.50
2023-04-02T20:26:35.258Z,165.52
2023-04-02T20:29:01.902Z,156.45
2023-04-02T20:31:28.764Z,151.25
2023-04-02T20:33:56.915Z,144.23
2023-04-02T20:36:24.818Z,149.13
2023-04-02T20:38:51.972Z,149.25
2023-04-02T20:41:19.538Z,146.15
2023-04-02T20:43:46.156Z,157.00
2023-04-02T20:46:13.402Z,154.23
2023-04-02T20:48:40.486Z,159.00
2023-04-02T20:51:09.467Z,167.07
2023-04-02T20:53:37.875Z,169.23
2023-04-02T20:56:06.836Z,157.00
2023-04-02T20:58:35.514Z,163.10
2023-04-02T21:01:09.675Z,161.20
2023-04-02T21:03:36.791Z,162.68
2023-04-02T21:06:04.197Z,158.00
2023-04-02T21:08:30.875Z,158.85
2023-04-02T21:11:07.495Z,156.00
2023-04-02T21:13:38.642Z,141.02
2023-04-02T21:16:12.267Z,141.88
2023-04-02T21:18:39.102Z,156.25
2023-04-02T21:21:07.309Z,163.80
2023-04-02T21:23:34.406Z,163.45
2023-04-02T21:26:06.412Z,163.15
2023-04-02T21:28:35.019Z,160.27
2023-04-02T21:31:06.651Z,157.45
2023-04-02T21:33:42.362Z,162.43
2023-04-02T21:36:12.071Z,161.13
2023-04-02T21:38:47.585Z,162.05
2023-04-02T21:41:19.708Z,167.43
2023-04-02T21:43:48.334Z,165.45
2023-04-02T21:46:19.813Z,170.80
2023-04-02T21:48:46.832Z,160.52
2023-04-02T21:51:18.716Z,154.40
2023-04-02T21:53:46.140Z,157.93
2023-04-02T21:56:16.548Z,161.18
2023-04-02T21:58:44.487Z,152.07
2023-04-02T22:01:23.822Z,148.07
2023-04-02T22:03:53.717Z,144.40
2023-04-02T22:06:22.186Z,144.30
2023-04-02T22:08:55.231Z,144.90
2023-04-02T22:11:26.608Z,148.10
2023-04-02T22:13:53.850Z,148.10
2023-04-02T22:16:23.942Z,144.35
2023-04-02T22:18:52.300Z,146.68
2023-04-02T22:21:19.712Z,150.13
2023-04-02T22:23:47.015Z,150.70
2023-04-02T22:26:15.988Z,153.13
2023-04-02T22:28:43.025Z,160.00
2023-04-02T22:31:18.675Z,149.02
2023-04-02T22:33:46.301Z,148.15
2023-04-02T22:36:14.332Z,138.82
2023-04-02T22:38:41.350Z,148.98
2023-04-02T22:41:14.134Z,156.05
2023-04-02T22:43:42.913Z,154.30
2023-04-02T22:46:11.269Z,149.27
2023-04-02T22:48:41.247Z,151.88
2023-04-02T22:51:11.759Z,153.93
2023-04-02T22:53:39.225Z,158.25
2023-04-02T22:56:07.570Z,159.68
2023-04-02T22:58:35.065Z,151.88
2023-04-02T23:01:12.307Z,154.35
2023-04-02T23:03:39.088Z,162.32
2023-04-02T23:06:08.570Z,157.10
2023-04-02T23:08:36.724Z,150.32
2023-04-02T23:11:12.254Z,156.73
2023-04-02T23:13:39.938Z,149.55
2023-04-02T23:16:10.070Z,151.05
2023-04-02T23:18:38.494Z,150.48
2023-04-02T23:21:06.628Z,158.20
2023-04-02T23:23:33.459Z,165.63
2023-04-02T23:26:12.599Z,168.05
2023-04-02T23:28:40.062Z,170.45
2023-04-02T23:31:08.444Z,163.05
2023-04-02T23:33:35.713Z,162.40
2023-04-02T23:36:34.599Z,166.95
2023-04-02T23:39:09.453Z,176.43
2023-04-02T23:41:37.955Z,179.23
2023-04-02T23:44:05.800Z,180.70
2023-04-02T23:46:33.235Z,180.57
2023-04-02T23:49:01.023Z,182.45
2023-04-02T23:51:28.843Z,192.65
2023-04-02T23:53:56.289Z,187.57
2023-04-02T23:56:23.020Z,185.57
2023-04-02T23:58:50.911Z,183.75
